createdAt,value
2019-05-30T00:03:50.481Z,7.00
2019-05-30T00:08:56.250Z,7.10
2019-05-30T00:14:00.725Z,7.10
2019-05-30T00:19:05.043Z,7.00
2019-05-30T00:24:08.365Z,7.10
2019-05-30T00:29:11.328Z,7.10
2019-05-30T00:34:14.220Z,7.10
2019-05-30T00:39:16.987Z,7.10
2019-05-30T00:44:19.903Z,7.20
2019-05-30T00:49:22.635Z,7.20
2019-05-30T00:54:25.336Z,7.20
2019-05-30T00:59:28.247Z,7.20
2019-05-30T01:04:30.987Z,7.20
2019-05-30T01:09:33.746Z,7.20
2019-05-30T01:14:36.722Z,7.20
2019-05-30T01:19:39.436Z,7.20
2019-05-30T01:24:42.364Z,7.20
2019-05-30T01:29:47.327Z,7.20
2019-05-30T01:34:50.034Z,7.30
2019-05-30T01:39:52.895Z,7.50
2019-05-30T01:44:55.607Z,7.50
2019-05-30T01:49:58.352Z,7.70
2019-05-30T01:55:01.130Z,7.80
2019-05-30T02:00:10.898Z,7.90
2019-05-30T02:05:11.282Z,8.00
2019-05-30T02:10:15.459Z,8.10
2019-05-30T02:15:18.496Z,8.30
2019-05-30T02:20:21.268Z,8.40
2019-05-30T02:25:24.039Z,8.50
2019-05-30T02:30:26.659Z,8.60
2019-05-30T02:35:29.355Z,8.90
2019-05-30T02:40:32.188Z,9.50
2019-05-30T02:45:34.984Z,10.10
2019-05-30T02:50:37.797Z,10.40
2019-05-30T02:55:41.387Z,10.60
2019-05-30T03:00:44.314Z,10.70
2019-05-30T03:05:47.084Z,10.70
2019-05-30T03:10:49.892Z,10.80
2019-05-30T03:15:56.123Z,10.90
2019-05-30T03:20:58.863Z,10.90
2019-05-30T03:26:02.552Z,10.90
2019-05-30T03:31:14.034Z,11.00
2019-05-30T03:36:23.825Z,11.00
2019-05-30T03:41:17.598Z,11.00
2019-05-30T03:46:25.571Z,11.10
2019-05-30T03:51:30.573Z,11.10
2019-05-30T03:56:38.370Z,11.20
2019-05-30T04:01:54.350Z,11.30
2019-05-30T04:07:02.759Z,11.40
2019-05-30T04:12:34.190Z,11.40
2019-05-30T04:17:37.584Z,11.50
2019-05-30T04:22:40.492Z,11.40
2019-05-30T04:27:43.465Z,11.40
2019-05-30T04:32:46.166Z,11.40
2019-05-30T04:37:49.101Z,11.50
2019-05-30T04:42:52.163Z,11.50
2019-05-30T04:53:42.391Z,11.50
2019-05-30T04:58:45.444Z,11.50
2019-05-30T05:03:49.331Z,11.50
2019-05-30T05:08:51.960Z,11.40
2019-05-30T05:13:54.736Z,11.50
2019-05-30T05:18:57.446Z,11.50
2019-05-30T05:24:00.192Z,11.50
2019-05-30T05:29:04.057Z,11.50
2019-05-30T05:34:06.758Z,11.50
2019-05-30T05:39:09.416Z,11.60
2019-05-30T05:44:12.176Z,11.60
2019-05-30T05:49:16.284Z,11.60
2019-05-30T05:54:19.360Z,11.60
2019-05-30T05:59:23.020Z,11.70
2019-05-30T06:04:25.923Z,11.70
2019-05-30T06:09:28.836Z,11.80
2019-05-30T06:14:31.659Z,11.90
2019-05-30T06:19:45.986Z,12.00
2019-05-30T06:24:39.670Z,12.10
2019-05-30T06:29:42.309Z,12.10
2019-05-30T06:34:45.009Z,12.20
2019-05-30T06:39:48.193Z,12.20
2019-05-30T06:44:51.002Z,12.10
2019-05-30T06:49:54.016Z,12.10
2019-05-30T06:54:56.798Z,12.10
2019-05-30T06:59:59.874Z,12.20
2019-05-30T07:05:03.476Z,12.20
2019-05-30T07:10:07.367Z,12.10
2019-05-30T07:15:10.829Z,12.00
2019-05-30T07:20:13.783Z,12.00
2019-05-30T07:25:17.315Z,12.20
2019-05-30T07:30:20.113Z,12.50
2019-05-30T07:35:23.961Z,12.80
2019-05-30T07:40:26.753Z,13.00
2019-05-30T07:46:29.434Z,13.10
2019-05-30T07:51:39.119Z,13.00
2019-05-30T07:56:42.271Z,12.70
2019-05-30T08:08:09.019Z,12.40
2019-05-30T08:14:10.669Z,12.10
2019-05-30T08:19:15.762Z,11.90
2019-05-30T08:24:26.440Z,11.80
2019-05-30T08:29:30.127Z,11.70
2019-05-30T08:34:34.522Z,11.80
2019-05-30T08:39:37.844Z,11.90
2019-05-30T08:51:40.750Z,12.00
2019-05-30T08:56:43.580Z,12.20
2019-05-30T09:01:52.873Z,12.20
2019-05-30T09:06:52.061Z,12.00
2019-05-30T09:11:54.810Z,11.90
2019-05-30T09:16:58.668Z,11.80
2019-05-30T09:22:01.506Z,11.60
2019-05-30T09:27:05.423Z,11.60
2019-05-30T09:32:08.256Z,11.50
2019-05-30T09:37:11.001Z,11.50
2019-05-30T09:42:13.683Z,11.40
2019-05-30T09:47:18.620Z,11.40
2019-05-30T09:52:21.326Z,11.40
2019-05-30T09:57:24.174Z,11.30
2019-05-30T10:02:26.913Z,11.20
2019-05-30T10:07:29.613Z,11.20
2019-05-30T10:12:33.378Z,10.90
2019-05-30T10:17:36.783Z,10.90
2019-05-30T10:22:44.733Z,10.80
2019-05-30T10:27:51.050Z,10.80
2019-05-30T10:32:54.046Z,10.70
2019-05-30T10:37:57.193Z,10.70
2019-05-30T10:43:13.167Z,10.70
2019-05-30T10:48:14.313Z,10.60
2019-05-30T10:53:16.982Z,10.60
2019-05-30T10:58:20.114Z,10.60
2019-05-30T11:03:24.427Z,10.60
2019-05-30T11:08:30.325Z,10.60
2019-05-30T11:13:33.228Z,10.70
2019-05-30T11:18:36.109Z,10.80
2019-05-30T11:23:38.900Z,10.80
2019-05-30T11:28:41.629Z,10.70
2019-05-30T11:33:44.303Z,10.70
2019-05-30T11:38:47.108Z,10.80
2019-05-30T11:43:51.203Z,10.80
2019-05-30T11:48:54.154Z,10.80
2019-05-30T11:53:57.911Z,10.80
2019-05-30T11:59:03.085Z,10.80
2019-05-30T12:04:07.315Z,10.90
2019-05-30T12:09:09.986Z,11.00
2019-05-30T12:14:12.769Z,11.00
2019-05-30T12:19:15.622Z,11.00
2019-05-30T12:24:21.713Z,11.00
2019-05-30T12:29:24.475Z,11.00
2019-05-30T12:34:39.975Z,11.00
2019-05-30T12:39:43.574Z,11.10
2019-05-30T12:44:46.522Z,11.10
2019-05-30T12:49:49.243Z,11.10
2019-05-30T12:54:52.125Z,11.20
2019-05-30T12:59:56.751Z,11.20
2019-05-30T13:05:04.854Z,11.20
2019-05-30T13:10:09.076Z,11.30
2019-05-30T13:15:15.984Z,11.30
2019-05-30T13:20:21.415Z,11.40
2019-05-30T13:25:25.130Z,11.50
2019-05-30T13:30:28.252Z,11.50
2019-05-30T13:35:31.375Z,11.50
2019-05-30T13:40:35.451Z,11.60
2019-05-30T13:45:38.084Z,11.60
2019-05-30T13:50:41.475Z,11.60
2019-05-30T13:55:44.224Z,11.60
2019-05-30T14:00:47.215Z,11.70
2019-05-30T14:05:51.122Z,11.70
2019-05-30T14:10:55.006Z,11.80
2019-05-30T14:15:57.855Z,11.80
2019-05-30T14:21:01.914Z,11.80
2019-05-30T14:26:05.333Z,11.80
2019-05-30T14:31:08.913Z,11.80
2019-05-30T14:36:13.302Z,11.80
2019-05-30T14:41:16.643Z,11.90
2019-05-30T14:46:20.137Z,11.90
2019-05-30T14:51:35.302Z,11.90
2019-05-30T14:56:37.418Z,12.00
2019-05-30T15:01:40.166Z,12.00
2019-05-30T15:06:43.806Z,12.10
2019-05-30T15:11:51.676Z,12.20
2019-05-30T15:16:54.905Z,12.20
2019-05-30T15:21:57.686Z,12.30
2019-05-30T15:27:01.202Z,12.40
2019-05-30T15:32:06.160Z,12.40
2019-05-30T15:37:27.267Z,12.50
2019-05-30T15:42:32.309Z,12.50
2019-05-30T15:47:35.115Z,12.50
2019-05-30T15:52:38.195Z,12.60
2019-05-30T15:57:40.937Z,12.60
2019-05-30T16:02:50.679Z,12.60
2019-05-30T16:07:54.560Z,12.60
2019-05-30T16:12:57.653Z,12.70
2019-05-30T16:18:01.033Z,12.70
2019-05-30T16:23:09.020Z,12.80
2019-05-30T16:28:13.749Z,12.90
2019-05-30T16:33:17.899Z,12.90
2019-05-30T16:44:30.092Z,13.00
2019-05-30T16:49:33.831Z,13.00
2019-05-30T16:54:37.318Z,12.90
2019-05-30T16:59:49.682Z,12.90
2019-05-30T17:05:15.855Z,12.80
2019-05-30T17:10:29.603Z,12.80
2019-05-30T17:15:26.848Z,12.80
2019-05-30T17:20:29.915Z,12.70
2019-05-30T17:25:32.644Z,12.60
2019-05-30T17:30:35.528Z,12.60
2019-05-30T17:35:39.241Z,12.60
2019-05-30T17:40:45.161Z,12.60
2019-05-30T17:45:46.570Z,12.50
2019-05-30T17:50:49.688Z,12.40
2019-05-30T17:55:52.571Z,12.40
2019-05-30T18:00:57.519Z,12.30
2019-05-30T18:06:00.089Z,12.30
2019-05-30T18:11:03.095Z,12.20
2019-05-30T18:16:05.924Z,12.20
2019-05-30T18:21:08.660Z,12.10
2019-05-30T18:26:11.310Z,12.10
2019-05-30T18:31:14.123Z,12.10
2019-05-30T18:36:16.794Z,12.00
2019-05-30T18:41:19.522Z,12.00
2019-05-30T18:46:23.042Z,11.90
2019-05-30T18:51:26.023Z,11.90
2019-05-30T18:56:28.925Z,11.90
2019-05-30T19:01:33.767Z,11.90
2019-05-30T19:06:36.896Z,11.80
2019-05-30T19:11:39.815Z,11.80
2019-05-30T19:16:43.180Z,11.80
2019-05-30T19:21:45.980Z,11.80
2019-05-30T19:26:48.830Z,11.80
2019-05-30T19:31:51.770Z,11.70
2019-05-30T19:36:54.626Z,11.70
2019-05-30T19:41:57.836Z,11.60
2019-05-30T19:47:01.213Z,11.50
2019-05-30T19:52:04.315Z,11.50
2019-05-30T19:57:07.155Z,11.40
2019-05-30T20:02:10.383Z,11.30
2019-05-30T20:07:13.357Z,11.20
2019-05-30T20:12:16.088Z,11.10
2019-05-30T20:17:18.849Z,11.10
2019-05-30T20:22:21.564Z,11.10
2019-05-30T20:27:24.651Z,11.10
2019-05-30T20:32:27.594Z,10.90
2019-05-30T20:37:32.480Z,10.80
2019-05-30T20:42:36.695Z,10.70
2019-05-30T20:47:42.187Z,10.70
2019-05-30T20:52:45.571Z,10.70
2019-05-30T20:57:48.636Z,10.70
2019-05-30T21:02:51.910Z,10.60
2019-05-30T21:07:55.181Z,10.60
2019-05-30T21:13:00.019Z,10.60
2019-05-30T21:18:04.522Z,10.60
2019-05-30T21:23:07.443Z,10.50
2019-05-30T21:28:10.291Z,10.50
2019-05-30T21:33:13.054Z,10.50
2019-05-30T21:38:15.886Z,10.50
2019-05-30T21:43:18.713Z,10.40
2019-05-30T21:48:21.514Z,10.40
2019-05-30T21:53:27.524Z,10.30
2019-05-30T21:58:30.374Z,10.20
2019-05-30T22:03:33.202Z,10.20
2019-05-30T22:08:36.195Z,10.10
2019-05-30T22:13:45.703Z,10.10
2019-05-30T22:18:48.540Z,10.10
2019-05-30T22:23:52.525Z,10.10
2019-05-30T22:28:55.970Z,10.10
2019-05-30T22:33:58.767Z,10.10
2019-05-30T22:39:01.675Z,10.10
2019-05-30T22:44:06.271Z,10.10
2019-05-30T22:49:09.248Z,10.00
2019-05-30T22:54:11.966Z,10.00
2019-05-30T22:59:15.039Z,10.00
2019-05-30T23:04:21.817Z,9.90
2019-05-30T23:09:24.556Z,9.90
2019-05-30T23:14:27.272Z,9.90
2019-05-30T23:19:29.942Z,9.90
2019-05-30T23:24:32.783Z,9.90
2019-05-30T23:29:36.087Z,9.90
2019-05-30T23:34:48.114Z,9.90
2019-05-30T23:39:51.032Z,9.90
2019-05-30T23:44:57.551Z,9.90
2019-05-30T23:50:00.438Z,9.90
2019-05-30T23:55:04.026Z,9.90
